createdAt,value
2019-03-30T00:00:47.542Z,11.80
2019-03-30T00:03:17.193Z,11.80
2019-03-30T00:05:47.213Z,11.90
2019-03-30T00:08:16.963Z,12.00
2019-03-30T00:10:47.912Z,12.00
2019-03-30T00:13:17.578Z,12.00
2019-03-30T00:15:48.258Z,11.60
2019-03-30T00:18:18.987Z,11.60
2019-03-30T00:20:48.642Z,11.60
2019-03-30T00:23:18.306Z,11.40
2019-03-30T00:25:47.966Z,11.40
2019-03-30T00:28:17.640Z,11.50
2019-03-30T00:30:47.297Z,11.60
2019-03-30T00:33:17.035Z,11.60
2019-03-30T00:35:48.226Z,11.60
2019-03-30T00:38:17.884Z,11.50
2019-03-30T00:40:47.569Z,11.50
2019-03-30T00:43:17.230Z,11.50
2019-03-30T00:45:47.211Z,11.50
2019-03-30T00:48:16.957Z,11.50
2019-03-30T00:50:49.306Z,11.40
2019-03-30T00:53:18.909Z,11.40
2019-03-30T00:55:48.742Z,11.40
2019-03-30T00:58:18.483Z,11.40
2019-03-30T01:00:48.122Z,11.30
2019-03-30T01:03:17.845Z,11.00
2019-03-30T01:05:47.581Z,11.10
2019-03-30T01:08:17.250Z,11.10
2019-03-30T01:10:47.179Z,11.10
2019-03-30T01:13:16.830Z,11.10
2019-03-30T01:15:46.509Z,11.10
2019-03-30T01:18:16.163Z,11.00
2019-03-30T01:20:45.826Z,11.00
2019-03-30T01:23:16.990Z,11.00
2019-03-30T01:25:46.655Z,11.00
2019-03-30T01:28:16.311Z,11.00
2019-03-30T01:30:45.971Z,11.00
2019-03-30T01:33:15.625Z,11.10
2019-03-30T01:35:45.300Z,10.90
2019-03-30T01:38:14.956Z,10.90
2019-03-30T01:40:44.606Z,10.90
2019-03-30T01:43:14.270Z,10.50
2019-03-30T01:45:44.021Z,10.50
2019-03-30T01:48:13.698Z,10.60
2019-03-30T01:50:43.376Z,10.60
2019-03-30T01:53:13.094Z,10.60
2019-03-30T01:55:42.758Z,10.60
2019-03-30T01:58:12.419Z,10.60
2019-03-30T02:00:42.969Z,10.60
2019-03-30T02:03:12.621Z,10.60
2019-03-30T02:05:42.293Z,10.60
2019-03-30T02:08:12.038Z,10.50
2019-03-30T02:10:44.493Z,10.50
2019-03-30T02:13:14.401Z,10.40
2019-03-30T02:15:45.665Z,10.40
2019-03-30T02:18:15.329Z,10.40
2019-03-30T02:20:47.489Z,10.40
2019-03-30T02:23:17.198Z,10.30
2019-03-30T02:25:46.998Z,10.20
2019-03-30T02:28:16.734Z,10.30
2019-03-30T02:30:46.398Z,10.20
2019-03-30T02:33:16.054Z,10.20
2019-03-30T02:35:45.730Z,10.10
2019-03-30T02:38:15.374Z,9.90
2019-03-30T02:40:45.047Z,10.00
2019-03-30T02:43:14.709Z,10.10
2019-03-30T02:45:44.448Z,10.10
2019-03-30T02:48:14.109Z,10.10
2019-03-30T02:50:49.721Z,10.10
2019-03-30T02:53:15.153Z,10.00
2019-03-30T02:55:44.895Z,10.00
2019-03-30T02:58:14.546Z,10.00
2019-03-30T03:00:44.233Z,10.00
2019-03-30T03:03:15.453Z,10.00
2019-03-30T03:05:45.098Z,10.00
2019-03-30T03:08:16.284Z,9.80
2019-03-30T03:10:45.941Z,9.60
2019-03-30T03:13:15.595Z,9.70
2019-03-30T03:15:45.288Z,9.70
2019-03-30T03:18:14.959Z,9.80
2019-03-30T03:20:44.613Z,9.60
2019-03-30T03:23:15.814Z,9.60
2019-03-30T03:25:45.458Z,9.70
2019-03-30T03:28:15.117Z,9.60
2019-03-30T03:30:44.768Z,9.70
2019-03-30T03:33:14.431Z,9.60
2019-03-30T03:35:44.179Z,9.60
2019-03-30T03:38:13.839Z,9.60
2019-03-30T03:40:43.484Z,9.60
2019-03-30T03:43:13.149Z,9.60
2019-03-30T03:45:43.804Z,9.60
2019-03-30T03:48:13.451Z,9.30
2019-03-30T03:50:46.597Z,9.30
2019-03-30T03:53:17.784Z,9.20
2019-03-30T03:55:47.606Z,9.30
2019-03-30T03:58:18.126Z,9.20
2019-03-30T04:03:34.192Z,9.20
2019-03-30T04:06:07.143Z,9.20
2019-03-30T04:08:37.399Z,9.00
2019-03-30T04:11:10.441Z,8.80
2019-03-30T04:13:41.327Z,8.60
2019-03-30T04:16:10.996Z,8.80
2019-03-30T04:18:40.714Z,9.00
2019-03-30T04:21:10.397Z,9.00
2019-03-30T04:23:40.053Z,9.00
2019-03-30T04:26:09.768Z,9.10
2019-03-30T04:28:39.435Z,9.10
2019-03-30T04:31:09.090Z,9.10
2019-03-30T04:33:38.777Z,9.20
2019-03-30T04:36:08.513Z,8.90
2019-03-30T04:38:38.244Z,8.80
2019-03-30T04:41:07.931Z,8.90
2019-03-30T04:43:37.787Z,8.90
2019-03-30T04:46:07.540Z,8.90
2019-03-30T04:48:37.146Z,8.80
2019-03-30T04:51:06.800Z,8.90
2019-03-30T04:53:36.467Z,8.90
2019-03-30T04:56:06.136Z,9.00
2019-03-30T04:58:35.916Z,8.90
2019-03-30T05:01:05.739Z,8.80
2019-03-30T05:03:35.509Z,8.80
2019-03-30T05:06:05.288Z,8.80
2019-03-30T05:08:35.013Z,8.70
2019-03-30T05:11:04.687Z,8.80
2019-03-30T05:13:34.511Z,8.70
2019-03-30T05:16:04.185Z,8.80
2019-03-30T05:18:33.841Z,8.80
2019-03-30T05:21:03.587Z,8.80
2019-03-30T05:23:33.240Z,8.70
2019-03-30T05:26:03.263Z,8.70
2019-03-30T05:28:34.472Z,8.70
2019-03-30T05:31:04.392Z,8.80
2019-03-30T05:33:34.041Z,8.60
2019-03-30T05:36:05.211Z,8.50
2019-03-30T05:38:34.933Z,8.50
2019-03-30T05:41:04.602Z,8.50
2019-03-30T05:43:34.253Z,8.50
2019-03-30T05:46:03.925Z,8.50
2019-03-30T05:48:33.580Z,8.60
2019-03-30T05:51:03.241Z,8.70
2019-03-30T05:53:32.908Z,8.80
2019-03-30T05:56:02.950Z,8.80
2019-03-30T05:58:32.693Z,9.00
2019-03-30T06:01:02.423Z,9.10
2019-03-30T06:03:32.271Z,9.10
2019-03-30T06:06:01.939Z,9.20
2019-03-30T06:08:31.619Z,9.20
2019-03-30T06:11:01.307Z,9.10
2019-03-30T06:13:30.961Z,9.10
2019-03-30T06:16:00.633Z,9.10
2019-03-30T06:18:30.299Z,9.10
2019-03-30T06:20:59.960Z,9.20
2019-03-30T06:23:29.631Z,9.40
2019-03-30T06:25:59.314Z,9.40
2019-03-30T06:28:28.969Z,9.40
2019-03-30T06:30:58.636Z,9.50
2019-03-30T06:33:28.295Z,9.60
2019-03-30T06:35:57.961Z,9.60
2019-03-30T06:38:27.648Z,9.60
2019-03-30T06:40:57.352Z,9.60
2019-03-30T06:43:34.004Z,9.70
2019-03-30T06:46:03.661Z,9.80
2019-03-30T06:48:36.265Z,9.80
2019-03-30T06:51:06.030Z,9.70
2019-03-30T06:53:35.668Z,9.70
2019-03-30T06:56:05.434Z,9.70
2019-03-30T06:58:35.104Z,9.80
2019-03-30T07:01:05.513Z,9.70
2019-03-30T07:03:35.628Z,9.80
2019-03-30T07:06:05.910Z,9.90
2019-03-30T07:08:37.612Z,9.80
2019-03-30T07:11:20.583Z,10.00
2019-03-30T07:13:42.129Z,9.80
2019-03-30T07:16:11.837Z,9.90
2019-03-30T07:18:43.704Z,10.10
2019-03-30T07:21:14.170Z,10.30
2019-03-30T07:23:43.841Z,10.20
2019-03-30T07:26:13.531Z,10.10
2019-03-30T07:28:47.096Z,10.20
2019-03-30T07:31:16.150Z,10.20
2019-03-30T07:33:45.793Z,10.30
2019-03-30T07:36:15.472Z,10.40
2019-03-30T07:38:45.163Z,10.50
2019-03-30T07:41:14.952Z,10.60
2019-03-30T07:43:44.639Z,10.50
2019-03-30T07:46:19.568Z,10.60
2019-03-30T07:48:48.465Z,10.70
2019-03-30T07:51:18.142Z,10.80
2019-03-30T07:53:47.847Z,10.90
2019-03-30T07:56:19.163Z,10.90
2019-03-30T07:58:48.884Z,10.80
2019-03-30T08:01:20.234Z,10.90
2019-03-30T08:03:51.563Z,11.00
2019-03-30T08:06:21.307Z,11.00
2019-03-30T08:08:51.317Z,11.00
2019-03-30T08:11:20.984Z,11.10
2019-03-30T08:13:50.662Z,11.20
2019-03-30T08:16:21.091Z,11.20
2019-03-30T08:18:50.755Z,11.20
2019-03-30T08:21:20.541Z,11.30
2019-03-30T08:23:50.302Z,11.40
2019-03-30T08:26:21.806Z,11.40
2019-03-30T08:28:51.464Z,11.50
2019-03-30T08:31:21.140Z,11.60
2019-03-30T08:33:50.928Z,11.70
2019-03-30T08:36:20.667Z,11.80
2019-03-30T08:38:50.399Z,11.90
2019-03-30T08:41:20.066Z,12.00
2019-03-30T08:43:49.769Z,12.00
2019-03-30T08:46:20.509Z,12.00
2019-03-30T08:48:50.189Z,12.20
2019-03-30T08:51:21.454Z,12.30
2019-03-30T08:53:54.900Z,12.40
2019-03-30T08:56:22.576Z,12.40
2019-03-30T08:58:52.318Z,12.60
2019-03-30T09:01:21.997Z,12.60
2019-03-30T09:03:51.654Z,12.70
2019-03-30T09:06:22.379Z,12.80
2019-03-30T09:08:52.099Z,12.90
2019-03-30T09:11:21.804Z,12.90
2019-03-30T09:13:51.611Z,13.00
2019-03-30T09:16:21.412Z,13.20
2019-03-30T09:18:51.155Z,13.30
2019-03-30T09:21:20.905Z,13.30
2019-03-30T09:23:50.568Z,13.30
2019-03-30T09:26:20.306Z,13.40
2019-03-30T09:28:51.115Z,13.50
2019-03-30T09:31:20.768Z,13.50
2019-03-30T09:33:50.439Z,13.60
2019-03-30T09:36:20.181Z,13.70
2019-03-30T09:38:49.875Z,13.80
2019-03-30T09:41:19.553Z,13.90
2019-03-30T09:43:49.280Z,13.90
2019-03-30T09:46:18.940Z,14.00
2019-03-30T09:48:48.599Z,14.00
2019-03-30T09:51:18.282Z,14.10
2019-03-30T09:53:48.084Z,14.20
2019-03-30T09:56:17.763Z,14.40
2019-03-30T09:58:47.418Z,14.40
2019-03-30T10:01:17.152Z,14.60
2019-03-30T10:03:46.807Z,14.60
2019-03-30T10:06:16.513Z,14.60
2019-03-30T10:08:46.163Z,14.70
2019-03-30T10:11:15.831Z,14.90
2019-03-30T10:13:45.515Z,15.00
2019-03-30T10:16:15.296Z,15.00
2019-03-30T10:18:44.995Z,15.10
2019-03-30T10:21:14.657Z,15.20
2019-03-30T10:23:44.629Z,15.30
2019-03-30T10:26:14.314Z,15.40
2019-03-30T10:28:47.279Z,15.50
2019-03-30T10:31:16.950Z,15.60
2019-03-30T10:33:46.636Z,15.60
2019-03-30T10:36:17.698Z,15.60
2019-03-30T10:38:47.380Z,15.60
2019-03-30T10:41:17.047Z,15.70
2019-03-30T10:43:46.701Z,15.90
2019-03-30T10:46:16.470Z,16.00
2019-03-30T10:48:46.153Z,16.00
2019-03-30T10:51:15.977Z,16.10
2019-03-30T10:53:45.711Z,16.20
2019-03-30T10:56:15.407Z,16.30
2019-03-30T10:58:46.013Z,16.40
2019-03-30T11:01:17.478Z,16.40
2019-03-30T11:03:47.171Z,16.40
2019-03-30T11:06:16.847Z,16.50
2019-03-30T11:08:46.519Z,16.50
2019-03-30T11:11:16.187Z,16.70
2019-03-30T11:13:45.858Z,16.80
2019-03-30T11:16:15.511Z,16.90
2019-03-30T11:18:45.499Z,16.90
2019-03-30T11:21:15.366Z,17.00
2019-03-30T11:23:45.103Z,17.20
2019-03-30T11:26:14.761Z,17.20
2019-03-30T11:28:44.524Z,17.40
2019-03-30T11:31:14.173Z,17.50
2019-03-30T11:33:43.909Z,17.60
2019-03-30T11:36:13.742Z,17.70
2019-03-30T11:38:43.410Z,17.80
2019-03-30T11:41:13.064Z,17.90
2019-03-30T11:43:42.799Z,17.90
2019-03-30T11:46:12.468Z,18.10
2019-03-30T11:48:42.245Z,18.00
2019-03-30T11:51:11.970Z,18.00
2019-03-30T11:53:41.741Z,18.00
2019-03-30T11:56:11.468Z,18.10
2019-03-30T11:58:41.147Z,18.20
2019-03-30T12:01:10.963Z,18.30
2019-03-30T12:03:40.691Z,18.30
2019-03-30T12:06:10.435Z,18.50
2019-03-30T12:08:40.090Z,18.60
2019-03-30T12:11:09.867Z,18.70
2019-03-30T12:13:39.723Z,18.80
2019-03-30T12:16:09.491Z,18.90
2019-03-30T12:18:39.253Z,18.90
2019-03-30T12:21:08.907Z,19.10
2019-03-30T12:23:38.848Z,19.20
2019-03-30T12:26:08.511Z,19.20
2019-03-30T12:28:38.178Z,19.20
2019-03-30T12:31:07.873Z,19.40
2019-03-30T12:33:38.832Z,19.50
2019-03-30T12:36:08.660Z,19.40
2019-03-30T12:38:38.482Z,19.50
2019-03-30T12:41:08.223Z,19.50
2019-03-30T12:43:39.137Z,19.60
2019-03-30T12:46:09.017Z,19.80
2019-03-30T12:48:38.671Z,20.00
2019-03-30T12:51:09.534Z,20.10
2019-03-30T12:53:49.613Z,20.20
2019-03-30T12:56:10.596Z,20.20
2019-03-30T12:58:40.266Z,20.30
2019-03-30T13:01:10.230Z,20.10
2019-03-30T13:03:39.928Z,20.20
2019-03-30T13:06:09.662Z,20.20
2019-03-30T13:08:39.393Z,20.30
2019-03-30T13:11:09.189Z,20.30
2019-03-30T13:13:38.798Z,20.60
2019-03-30T13:16:08.562Z,20.50
2019-03-30T13:18:38.222Z,20.40
2019-03-30T13:21:07.875Z,20.40
2019-03-30T13:23:37.539Z,20.60
2019-03-30T13:26:07.282Z,20.90
2019-03-30T13:28:36.937Z,20.90
2019-03-30T13:31:06.584Z,20.80
2019-03-30T13:33:36.261Z,20.80
2019-03-30T13:36:10.535Z,21.10
2019-03-30T13:38:39.546Z,21.10
2019-03-30T13:41:09.336Z,21.20
2019-03-30T13:43:39.080Z,21.40
2019-03-30T13:46:08.787Z,21.50
2019-03-30T13:48:38.547Z,21.70
2019-03-30T13:51:08.201Z,21.80
2019-03-30T13:53:37.867Z,22.20
2019-03-30T13:56:17.078Z,22.70
2019-03-30T13:58:39.149Z,22.90
2019-03-30T14:01:08.809Z,22.60
2019-03-30T14:03:38.480Z,22.50
2019-03-30T14:06:09.141Z,22.80
2019-03-30T14:08:43.216Z,23.30
2019-03-30T14:11:13.902Z,23.70
2019-03-30T14:13:43.574Z,23.80
2019-03-30T14:16:15.544Z,24.10
2019-03-30T14:18:45.299Z,24.80
2019-03-30T14:21:14.955Z,24.80
2019-03-30T14:23:44.639Z,24.20
2019-03-30T14:26:14.295Z,24.70
2019-03-30T14:28:43.995Z,25.20
2019-03-30T14:31:13.609Z,25.30
2019-03-30T14:33:43.308Z,26.00
2019-03-30T14:36:12.980Z,26.60
2019-03-30T14:38:42.782Z,27.90
2019-03-30T14:41:12.467Z,28.30
2019-03-30T14:43:45.298Z,30.20
2019-03-30T14:46:15.533Z,30.80
2019-03-30T14:48:45.770Z,31.70
2019-03-30T14:51:16.025Z,32.00
2019-03-30T14:53:45.970Z,33.20
2019-03-30T14:56:15.907Z,32.10
2019-03-30T14:58:45.863Z,33.60
2019-03-30T15:01:17.343Z,35.10
2019-03-30T15:03:47.293Z,34.60
2019-03-30T15:06:20.301Z,34.80
2019-03-30T15:08:51.044Z,35.20
2019-03-30T15:11:20.961Z,35.60
2019-03-30T15:13:50.891Z,36.20
2019-03-30T15:16:20.882Z,35.30
2019-03-30T15:18:50.808Z,34.00
2019-03-30T15:21:20.826Z,34.90
2019-03-30T15:23:50.765Z,35.50
2019-03-30T15:26:22.626Z,34.40
2019-03-30T15:28:54.111Z,35.30
2019-03-30T15:31:25.042Z,36.40
2019-03-30T15:33:54.965Z,36.90
2019-03-30T15:36:24.907Z,36.30
2019-03-30T15:38:54.838Z,36.50
2019-03-30T15:41:24.777Z,35.80
2019-03-30T15:43:54.717Z,34.40
2019-03-30T15:46:24.811Z,36.00
2019-03-30T15:48:54.743Z,34.80
2019-03-30T15:51:24.680Z,34.70
2019-03-30T15:53:54.644Z,35.70
2019-03-30T15:56:24.665Z,35.40
2019-03-30T15:58:54.588Z,33.70
2019-03-30T16:01:24.535Z,34.40
2019-03-30T16:03:56.002Z,35.10
2019-03-30T16:06:26.024Z,34.60
2019-03-30T16:08:55.962Z,33.60
2019-03-30T16:11:25.917Z,33.70
2019-03-30T16:13:55.830Z,32.70
2019-03-30T16:16:25.856Z,31.90
2019-03-30T16:18:57.018Z,32.90
2019-03-30T16:21:26.939Z,33.20
2019-03-30T16:23:57.916Z,32.20
2019-03-30T16:26:41.393Z,32.00
2019-03-30T16:28:59.565Z,32.00
2019-03-30T16:31:29.537Z,31.30
2019-03-30T16:33:59.567Z,30.30
2019-03-30T16:36:29.535Z,29.80
2019-03-30T16:38:59.534Z,30.00
2019-03-30T16:41:29.790Z,28.80
2019-03-30T16:44:00.028Z,27.80
2019-03-30T16:46:30.287Z,26.10
2019-03-30T16:49:00.527Z,25.20
2019-03-30T16:51:30.275Z,24.60
2019-03-30T16:53:59.929Z,24.20
2019-03-30T16:56:29.593Z,23.60
2019-03-30T16:58:59.247Z,23.40
2019-03-30T17:01:28.913Z,23.10
2019-03-30T17:03:58.579Z,22.90
2019-03-30T17:06:28.231Z,22.60
2019-03-30T17:08:57.896Z,22.40
2019-03-30T17:11:29.083Z,22.20
2019-03-30T17:13:58.750Z,22.10
2019-03-30T17:16:28.463Z,21.90
2019-03-30T17:18:58.131Z,21.70
2019-03-30T17:21:27.875Z,21.70
2019-03-30T17:23:57.537Z,21.40
2019-03-30T17:26:28.420Z,21.30
2019-03-30T17:28:58.088Z,21.30
2019-03-30T17:31:27.741Z,21.30
2019-03-30T17:33:57.430Z,21.10
2019-03-30T17:36:27.093Z,21.10
2019-03-30T17:38:56.784Z,21.00
2019-03-30T17:41:26.578Z,20.90
2019-03-30T17:43:56.247Z,20.70
2019-03-30T17:46:25.979Z,20.70
2019-03-30T17:48:55.633Z,20.60
2019-03-30T17:51:25.297Z,20.30
2019-03-30T17:53:55.030Z,20.20
2019-03-30T17:56:24.748Z,20.20
2019-03-30T17:58:54.362Z,20.10
2019-03-30T18:01:25.614Z,20.00
2019-03-30T18:03:55.273Z,19.90
2019-03-30T18:06:24.945Z,19.90
2019-03-30T18:08:55.945Z,19.90
2019-03-30T18:11:25.701Z,19.80
2019-03-30T18:13:56.333Z,19.70
2019-03-30T18:16:26.018Z,19.60
2019-03-30T18:18:57.041Z,19.50
2019-03-30T18:21:26.779Z,19.40
2019-03-30T18:23:56.459Z,19.30
2019-03-30T18:26:27.055Z,19.30
2019-03-30T18:28:58.916Z,19.20
2019-03-30T18:31:28.587Z,19.20
2019-03-30T18:33:58.382Z,19.10
2019-03-30T18:36:29.548Z,19.00
2019-03-30T18:39:09.518Z,19.00
2019-03-30T18:41:31.292Z,18.80
2019-03-30T18:44:02.401Z,18.80
2019-03-30T18:46:33.713Z,18.70
2019-03-30T18:49:03.384Z,18.60
2019-03-30T18:51:33.280Z,18.60
2019-03-30T18:54:03.661Z,18.50
2019-03-30T18:56:33.323Z,18.50
2019-03-30T18:59:02.982Z,18.40
2019-03-30T19:01:32.649Z,18.30
2019-03-30T19:04:02.317Z,18.20
2019-03-30T19:06:31.971Z,18.10
2019-03-30T19:09:01.640Z,18.00
2019-03-30T19:11:31.548Z,18.00
2019-03-30T19:14:01.222Z,17.90
2019-03-30T19:16:33.934Z,17.80
2019-03-30T19:19:03.593Z,17.80
2019-03-30T19:21:33.270Z,17.70
2019-03-30T19:24:02.938Z,17.40
2019-03-30T19:26:34.143Z,17.20
2019-03-30T19:29:03.878Z,17.20
2019-03-30T19:31:33.563Z,17.20
2019-03-30T19:34:03.230Z,17.20
2019-03-30T19:36:32.961Z,17.20
2019-03-30T19:39:02.944Z,17.20
2019-03-30T19:41:32.681Z,17.20
2019-03-30T19:44:02.349Z,17.00
2019-03-30T19:46:32.577Z,16.90
2019-03-30T19:49:02.272Z,16.80
2019-03-30T19:51:33.149Z,16.80
2019-03-30T19:54:02.905Z,16.70
2019-03-30T19:56:34.042Z,16.70
2019-03-30T19:59:10.652Z,16.60
2019-03-30T20:01:35.108Z,16.40
2019-03-30T20:04:07.721Z,16.40
2019-03-30T20:06:36.278Z,16.40
2019-03-30T20:09:10.454Z,16.30
2019-03-30T20:11:40.122Z,16.10
2019-03-30T20:14:09.772Z,16.10
2019-03-30T20:16:42.238Z,16.00
2019-03-30T20:19:13.285Z,16.00
2019-03-30T20:21:42.954Z,16.00
2019-03-30T20:24:12.625Z,15.90
2019-03-30T20:26:42.283Z,15.70
2019-03-30T20:29:24.690Z,15.70
2019-03-30T20:31:43.317Z,15.80
2019-03-30T20:34:12.987Z,15.70
2019-03-30T20:36:42.677Z,15.60
2019-03-30T20:39:12.339Z,15.60
2019-03-30T20:41:42.199Z,15.50
2019-03-30T20:44:11.853Z,15.40
2019-03-30T20:46:43.746Z,15.30
2019-03-30T20:49:15.460Z,15.40
2019-03-30T20:51:45.120Z,15.30
2019-03-30T20:54:14.795Z,15.30
2019-03-30T20:56:45.799Z,15.30
2019-03-30T20:59:15.449Z,15.30
2019-03-30T21:01:45.105Z,15.30
2019-03-30T21:04:14.788Z,15.20
2019-03-30T21:06:46.919Z,15.10
2019-03-30T21:09:16.598Z,15.00
2019-03-30T21:11:46.255Z,15.00
2019-03-30T21:14:15.959Z,14.90
2019-03-30T21:16:45.903Z,14.90
2019-03-30T21:19:15.564Z,14.80
2019-03-30T21:21:45.319Z,14.80
2019-03-30T21:24:14.976Z,14.80
2019-03-30T21:26:44.678Z,14.80
2019-03-30T21:29:14.329Z,14.70
2019-03-30T21:31:43.993Z,14.60
2019-03-30T21:34:14.607Z,14.60
2019-03-30T21:36:45.839Z,14.60
2019-03-30T21:39:16.594Z,14.60
2019-03-30T21:41:46.254Z,14.60
2019-03-30T21:44:21.756Z,14.50
2019-03-30T21:46:47.374Z,14.40
2019-03-30T21:49:17.046Z,14.40
2019-03-30T21:51:46.712Z,14.30
2019-03-30T21:54:16.436Z,14.30
2019-03-30T21:56:46.119Z,14.30
2019-03-30T21:59:15.852Z,14.20
2019-03-30T22:01:45.508Z,14.20
2019-03-30T22:04:15.190Z,13.80
2019-03-30T22:06:44.837Z,13.80
2019-03-30T22:09:14.562Z,13.50
2019-03-30T22:11:44.298Z,13.60
2019-03-30T22:14:13.967Z,13.70
2019-03-30T22:16:43.710Z,13.60
2019-03-30T22:19:13.351Z,13.80
2019-03-30T22:21:43.015Z,13.70
2019-03-30T22:24:12.679Z,13.70
2019-03-30T22:26:42.332Z,13.70
2019-03-30T22:29:11.996Z,13.70
2019-03-30T22:31:42.787Z,13.40
2019-03-30T22:34:12.438Z,13.40
2019-03-30T22:36:42.113Z,13.50
2019-03-30T22:39:11.763Z,13.60
2019-03-30T22:41:41.429Z,13.70
2019-03-30T22:44:11.099Z,13.70
2019-03-30T22:46:40.752Z,13.70
2019-03-30T22:49:10.404Z,13.50
2019-03-30T22:51:40.056Z,13.30
2019-03-30T22:54:09.727Z,13.50
2019-03-30T22:56:39.380Z,13.50
2019-03-30T22:59:09.047Z,13.30
2019-03-30T23:01:38.777Z,13.30
2019-03-30T23:04:08.521Z,13.40
2019-03-30T23:06:38.212Z,13.30
2019-03-30T23:09:11.256Z,13.30
2019-03-30T23:11:39.451Z,13.40
2019-03-30T23:14:09.119Z,13.40
2019-03-30T23:16:38.772Z,13.40
2019-03-30T23:19:08.439Z,13.30
2019-03-30T23:21:38.091Z,13.30
2019-03-30T23:24:08.880Z,13.30
2019-03-30T23:26:38.534Z,13.20
2019-03-30T23:29:08.204Z,12.70
2019-03-30T23:31:37.869Z,12.50
2019-03-30T23:34:09.060Z,12.70
2019-03-30T23:36:38.727Z,12.80
2019-03-30T23:39:09.605Z,12.90
2019-03-30T23:41:39.271Z,12.90
2019-03-30T23:44:08.935Z,12.90
2019-03-30T23:46:38.601Z,12.90
2019-03-30T23:49:08.263Z,12.90
2019-03-30T23:51:38.008Z,12.80
2019-03-30T23:54:11.710Z,12.70
2019-03-30T23:56:41.487Z,12.70
2019-03-30T23:59:11.157Z,12.70
